sensor_id;sensor_type;location;lat;lon;timestamp;temperature;humidity
10083;DHT22;5080;48.528;8.078;2022-10-16T00:02:24;16.80;99.90
10083;DHT22;5080;48.528;8.078;2022-10-16T00:04:51;16.90;99.90
10083;DHT22;5080;48.528;8.078;2022-10-16T00:07:20;16.80;99.90
10083;DHT22;5080;48.528;8.078;2022-10-16T00:09:47;16.90;99.90
10083;DHT22;5080;48.528;8.078;2022-10-16T00:12:13;16.80;99.90
10083;DHT22;5080;48.528;8.078;2022-10-16T00:14:42;16.80;99.90
10083;DHT22;5080;48.528;8.078;2022-10-16T00:17:09;16.90;99.90
10083;DHT22;5080;48.528;8.078;2022-10-16T00:19:36;16.90;99.90
10083;DHT22;5080;48.528;8.078;2022-10-16T00:22:03;16.90;99.90
10083;DHT22;5080;48.528;8.078;2022-10-16T00:24:29;16.80;99.90
10083;DHT22;5080;48.528;8.078;2022-10-16T00:26:56;16.80;99.90
10083;DHT22;5080;48.528;8.078;2022-10-16T00:29:23;17.00;99.90
10083;DHT22;5080;48.528;8.078;2022-10-16T00:31:51;16.80;99.90
10083;DHT22;5080;48.528;8.078;2022-10-16T00:34:18;16.90;99.90
10083;DHT22;5080;48.528;8.078;2022-10-16T00:36:45;17.00;99.90
10083;DHT22;5080;48.528;8.078;2022-10-16T00:39:12;16.80;99.90
10083;DHT22;5080;48.528;8.078;2022-10-16T00:41:38;16.90;99.90
10083;DHT22;5080;48.528;8.078;2022-10-16T00:47:08;16.80;99.90
10083;DHT22;5080;48.528;8.078;2022-10-16T00:49:36;16.80;99.90
10083;DHT22;5080;48.528;8.078;2022-10-16T00:52:03;16.80;99.90
10083;DHT22;5080;48.528;8.078;2022-10-16T00:54:31;16.80;99.90
10083;DHT22;5080;48.528;8.078;2022-10-16T00:57:00;16.80;99.90
10083;DHT22;5080;48.528;8.078;2022-10-16T00:59:29;16.80;99.90
10083;DHT22;5080;48.528;8.078;2022-10-16T01:01:57;16.80;99.90
10083;DHT22;5080;48.528;8.078;2022-10-16T01:04:26;16.80;99.90
10083;DHT22;5080;48.528;8.078;2022-10-16T01:06:59;16.80;99.90
10083;DHT22;5080;48.528;8.078;2022-10-16T01:09:34;16.80;99.90
10083;DHT22;5080;48.528;8.078;2022-10-16T01:12:08;16.80;99.90
10083;DHT22;5080;48.528;8.078;2022-10-16T01:14:40;16.80;99.90
10083;DHT22;5080;48.528;8.078;2022-10-16T01:17:12;16.90;99.90
10083;DHT22;5080;48.528;8.078;2022-10-16T01:19:55;16.90;99.90
10083;DHT22;5080;48.528;8.078;2022-10-16T01:22:36;16.90;99.90
10083;DHT22;5080;48.528;8.078;2022-10-16T01:25:07;16.80;99.90
10083;DHT22;5080;48.528;8.078;2022-10-16T01:27:39;16.80;99.90
10083;DHT22;5080;48.528;8.078;2022-10-16T01:30:10;16.80;99.90
10083;DHT22;5080;48.528;8.078;2022-10-16T01:32:42;16.80;99.90
10083;DHT22;5080;48.528;8.078;2022-10-16T01:35:16;16.80;99.90
10083;DHT22;5080;48.528;8.078;2022-10-16T01:37:50;16.80;99.90
10083;DHT22;5080;48.528;8.078;2022-10-16T01:40:19;16.80;99.90
10083;DHT22;5080;48.528;8.078;2022-10-16T01:42:52;16.70;99.90
10083;DHT22;5080;48.528;8.078;2022-10-16T01:45:21;16.80;99.90
10083;DHT22;5080;48.528;8.078;2022-10-16T01:47:49;16.70;99.90
10083;DHT22;5080;48.528;8.078;2022-10-16T01:50:18;16.70;99.90
10083;DHT22;5080;48.528;8.078;2022-10-16T01:52:49;16.70;99.90
10083;DHT22;5080;48.528;8.078;2022-10-16T01:55:21;16.70;99.90
10083;DHT22;5080;48.528;8.078;2022-10-16T01:57:51;16.70;99.90
10083;DHT22;5080;48.528;8.078;2022-10-16T02:00:21;16.70;99.90
10083;DHT22;5080;48.528;8.078;2022-10-16T02:02:53;16.70;99.90
10083;DHT22;5080;48.528;8.078;2022-10-16T02:05:23;16.70;99.90
10083;DHT22;5080;48.528;8.078;2022-10-16T02:07:51;16.80;99.90
10083;DHT22;5080;48.528;8.078;2022-10-16T02:10:19;16.80;99.90
10083;DHT22;5080;48.528;8.078;2022-10-16T02:12:50;16.70;99.90
10083;DHT22;5080;48.528;8.078;2022-10-16T02:15:19;16.70;99.90
10083;DHT22;5080;48.528;8.078;2022-10-16T02:17:46;16.70;99.90
10083;DHT22;5080;48.528;8.078;2022-10-16T02:20:13;16.80;99.90
10083;DHT22;5080;48.528;8.078;2022-10-16T02:22:43;16.60;99.90
10083;DHT22;5080;48.528;8.078;2022-10-16T02:25:15;16.70;99.90
10083;DHT22;5080;48.528;8.078;2022-10-16T02:27:47;16.70;99.90
10083;DHT22;5080;48.528;8.078;2022-10-16T02:30:20;16.70;99.90
10083;DHT22;5080;48.528;8.078;2022-10-16T02:32:48;16.70;99.90
10083;DHT22;5080;48.528;8.078;2022-10-16T02:35:17;16.70;99.90
10083;DHT22;5080;48.528;8.078;2022-10-16T02:37:45;16.60;99.90
10083;DHT22;5080;48.528;8.078;2022-10-16T02:40:12;16.60;99.90
10083;DHT22;5080;48.528;8.078;2022-10-16T02:42:40;16.60;99.90
10083;DHT22;5080;48.528;8.078;2022-10-16T02:45:09;16.60;99.90
10083;DHT22;5080;48.528;8.078;2022-10-16T02:47:38;16.60;99.90
10083;DHT22;5080;48.528;8.078;2022-10-16T02:50:05;16.60;99.90
10083;DHT22;5080;48.528;8.078;2022-10-16T02:52:32;16.50;99.90
10083;DHT22;5080;48.528;8.078;2022-10-16T02:54:59;16.50;99.90
10083;DHT22;5080;48.528;8.078;2022-10-16T02:57:26;16.50;99.90
10083;DHT22;5080;48.528;8.078;2022-10-16T02:59:53;16.60;99.90
10083;DHT22;5080;48.528;8.078;2022-10-16T03:02:20;16.50;99.90
10083;DHT22;5080;48.528;8.078;2022-10-16T03:04:48;16.60;99.90
10083;DHT22;5080;48.528;8.078;2022-10-16T03:07:15;16.40;99.90
10083;DHT22;5080;48.528;8.078;2022-10-16T03:09:41;16.50;99.90
10083;DHT22;5080;48.528;8.078;2022-10-16T03:12:08;16.40;99.90
10083;DHT22;5080;48.528;8.078;2022-10-16T03:14:37;16.60;99.90
10083;DHT22;5080;48.528;8.078;2022-10-16T03:17:05;16.40;99.90
10083;DHT22;5080;48.528;8.078;2022-10-16T03:19:32;16.30;99.90
10083;DHT22;5080;48.528;8.078;2022-10-16T03:22:00;16.50;99.90
10083;DHT22;5080;48.528;8.078;2022-10-16T03:24:27;16.30;99.90
10083;DHT22;5080;48.528;8.078;2022-10-16T03:26:54;16.40;99.90
10083;DHT22;5080;48.528;8.078;2022-10-16T03:29:20;16.30;99.90
10083;DHT22;5080;48.528;8.078;2022-10-16T03:31:47;16.30;99.90
10083;DHT22;5080;48.528;8.078;2022-10-16T03:34:15;16.30;99.90
10083;DHT22;5080;48.528;8.078;2022-10-16T03:36:42;16.30;99.90
10083;DHT22;5080;48.528;8.078;2022-10-16T03:39:10;16.30;99.90
10083;DHT22;5080;48.528;8.078;2022-10-16T03:41:37;16.30;99.90
10083;DHT22;5080;48.528;8.078;2022-10-16T03:44:03;16.40;99.90
10083;DHT22;5080;48.528;8.078;2022-10-16T03:46:30;16.30;99.90
10083;DHT22;5080;48.528;8.078;2022-10-16T03:48:57;16.30;99.90
10083;DHT22;5080;48.528;8.078;2022-10-16T03:51:24;16.30;99.90
10083;DHT22;5080;48.528;8.078;2022-10-16T03:53:51;16.30;99.90
10083;DHT22;5080;48.528;8.078;2022-10-16T03:56:19;16.30;99.90
10083;DHT22;5080;48.528;8.078;2022-10-16T03:58:46;16.30;99.90
10083;DHT22;5080;48.528;8.078;2022-10-16T04:01:13;16.30;99.90
10083;DHT22;5080;48.528;8.078;2022-10-16T04:03:40;16.30;99.90
10083;DHT22;5080;48.528;8.078;2022-10-16T04:06:07;16.30;99.90
10083;DHT22;5080;48.528;8.078;2022-10-16T04:08:34;16.40;99.90
10083;DHT22;5080;48.528;8.078;2022-10-16T04:11:02;16.20;99.90
10083;DHT22;5080;48.528;8.078;2022-10-16T04:13:30;16.20;99.90
10083;DHT22;5080;48.528;8.078;2022-10-16T04:15:57;16.20;99.90
10083;DHT22;5080;48.528;8.078;2022-10-16T04:18:24;16.20;99.90
10083;DHT22;5080;48.528;8.078;2022-10-16T04:20:52;16.20;99.90
10083;DHT22;5080;48.528;8.078;2022-10-16T04:23:19;16.20;99.90
10083;DHT22;5080;48.528;8.078;2022-10-16T04:25:46;16.20;99.90
10083;DHT22;5080;48.528;8.078;2022-10-16T04:28:13;16.20;99.90
10083;DHT22;5080;48.528;8.078;2022-10-16T04:30:41;16.20;99.90
10083;DHT22;5080;48.528;8.078;2022-10-16T04:33:09;16.50;99.90
10083;DHT22;5080;48.528;8.078;2022-10-16T04:35:36;16.30;99.90
10083;DHT22;5080;48.528;8.078;2022-10-16T04:38:02;16.30;99.90
10083;DHT22;5080;48.528;8.078;2022-10-16T04:40:29;16.30;99.90
10083;DHT22;5080;48.528;8.078;2022-10-16T04:42:58;16.40;99.90
10083;DHT22;5080;48.528;8.078;2022-10-16T04:45:25;16.30;99.90
10083;DHT22;5080;48.528;8.078;2022-10-16T04:47:56;16.20;99.90
10083;DHT22;5080;48.528;8.078;2022-10-16T04:50:23;16.20;99.90
10083;DHT22;5080;48.528;8.078;2022-10-16T04:52:50;16.30;99.90
10083;DHT22;5080;48.528;8.078;2022-10-16T04:55:17;16.20;99.90
10083;DHT22;5080;48.528;8.078;2022-10-16T04:57:44;16.20;99.90
10083;DHT22;5080;48.528;8.078;2022-10-16T05:00:11;16.20;99.90
10083;DHT22;5080;48.528;8.078;2022-10-16T05:02:38;16.20;99.90
10083;DHT22;5080;48.528;8.078;2022-10-16T05:05:07;16.20;99.90
10083;DHT22;5080;48.528;8.078;2022-10-16T05:07:34;16.20;99.90
10083;DHT22;5080;48.528;8.078;2022-10-16T05:10:00;16.20;99.90
10083;DHT22;5080;48.528;8.078;2022-10-16T05:12:27;16.30;99.90
10083;DHT22;5080;48.528;8.078;2022-10-16T05:14:54;16.30;99.90
10083;DHT22;5080;48.528;8.078;2022-10-16T05:17:23;16.30;99.90
10083;DHT22;5080;48.528;8.078;2022-10-16T05:19:50;16.40;99.90
10083;DHT22;5080;48.528;8.078;2022-10-16T05:22:18;16.30;99.90
10083;DHT22;5080;48.528;8.078;2022-10-16T05:24:45;16.30;99.90
10083;DHT22;5080;48.528;8.078;2022-10-16T05:27:12;16.50;99.90
10083;DHT22;5080;48.528;8.078;2022-10-16T05:29:44;16.60;99.90
10083;DHT22;5080;48.528;8.078;2022-10-16T05:32:12;16.30;99.90
10083;DHT22;5080;48.528;8.078;2022-10-16T05:34:39;16.40;99.90
10083;DHT22;5080;48.528;8.078;2022-10-16T05:37:05;16.40;99.90
10083;DHT22;5080;48.528;8.078;2022-10-16T05:39:34;16.30;99.90
10083;DHT22;5080;48.528;8.078;2022-10-16T05:42:02;16.30;99.90
10083;DHT22;5080;48.528;8.078;2022-10-16T05:44:29;16.30;99.90
10083;DHT22;5080;48.528;8.078;2022-10-16T05:46:56;16.40;99.90
10083;DHT22;5080;48.528;8.078;2022-10-16T05:49:22;16.40;99.90
10083;DHT22;5080;48.528;8.078;2022-10-16T05:51:49;16.40;99.90
10083;DHT22;5080;48.528;8.078;2022-10-16T05:54:16;16.40;99.90
10083;DHT22;5080;48.528;8.078;2022-10-16T05:56:44;16.40;99.90
10083;DHT22;5080;48.528;8.078;2022-10-16T05:59:11;16.40;99.90
10083;DHT22;5080;48.528;8.078;2022-10-16T06:01:38;16.50;99.90
10083;DHT22;5080;48.528;8.078;2022-10-16T06:04:05;16.40;99.90
10083;DHT22;5080;48.528;8.078;2022-10-16T06:06:31;16.50;99.90
10083;DHT22;5080;48.528;8.078;2022-10-16T06:08:58;16.40;99.90
10083;DHT22;5080;48.528;8.078;2022-10-16T06:11:26;16.30;99.90
10083;DHT22;5080;48.528;8.078;2022-10-16T06:13:57;16.40;99.90
10083;DHT22;5080;48.528;8.078;2022-10-16T06:16:24;16.20;99.90
10083;DHT22;5080;48.528;8.078;2022-10-16T06:18:52;16.20;99.90
10083;DHT22;5080;48.528;8.078;2022-10-16T06:21:21;16.20;99.90
10083;DHT22;5080;48.528;8.078;2022-10-16T06:23:48;16.20;99.90
10083;DHT22;5080;48.528;8.078;2022-10-16T06:26:18;16.40;99.90
10083;DHT22;5080;48.528;8.078;2022-10-16T06:28:46;16.30;99.90
10083;DHT22;5080;48.528;8.078;2022-10-16T06:31:15;16.20;99.90
10083;DHT22;5080;48.528;8.078;2022-10-16T06:33:42;16.20;99.90
10083;DHT22;5080;48.528;8.078;2022-10-16T06:36:12;16.20;99.90
10083;DHT22;5080;48.528;8.078;2022-10-16T06:38:40;16.20;99.90
10083;DHT22;5080;48.528;8.078;2022-10-16T06:41:09;16.10;99.90
10083;DHT22;5080;48.528;8.078;2022-10-16T06:43:37;16.30;99.90
10083;DHT22;5080;48.528;8.078;2022-10-16T06:46:05;16.30;99.90
10083;DHT22;5080;48.528;8.078;2022-10-16T06:48:34;16.50;99.90
10083;DHT22;5080;48.528;8.078;2022-10-16T06:51:03;16.30;99.90
10083;DHT22;5080;48.528;8.078;2022-10-16T06:53:31;16.30;99.90
10083;DHT22;5080;48.528;8.078;2022-10-16T06:56:06;16.40;99.90
10083;DHT22;5080;48.528;8.078;2022-10-16T06:58:33;16.40;99.90
10083;DHT22;5080;48.528;8.078;2022-10-16T07:01:00;16.60;99.90
10083;DHT22;5080;48.528;8.078;2022-10-16T07:03:27;16.50;99.90
10083;DHT22;5080;48.528;8.078;2022-10-16T07:05:55;16.50;99.90
10083;DHT22;5080;48.528;8.078;2022-10-16T07:08:22;16.60;99.90
10083;DHT22;5080;48.528;8.078;2022-10-16T07:10:48;16.60;99.90
10083;DHT22;5080;48.528;8.078;2022-10-16T07:13:24;16.70;99.90
10083;DHT22;5080;48.528;8.078;2022-10-16T07:15:50;16.70;99.90
10083;DHT22;5080;48.528;8.078;2022-10-16T07:18:17;16.80;99.90
10083;DHT22;5080;48.528;8.078;2022-10-16T07:20:44;16.80;99.90
10083;DHT22;5080;48.528;8.078;2022-10-16T07:23:12;16.80;99.90
10083;DHT22;5080;48.528;8.078;2022-10-16T07:25:39;16.80;99.90
10083;DHT22;5080;48.528;8.078;2022-10-16T07:28:06;16.80;99.90
10083;DHT22;5080;48.528;8.078;2022-10-16T07:30:35;16.70;99.90
10083;DHT22;5080;48.528;8.078;2022-10-16T07:33:03;16.80;99.90
10083;DHT22;5080;48.528;8.078;2022-10-16T07:35:30;16.80;99.90
10083;DHT22;5080;48.528;8.078;2022-10-16T07:37:57;16.80;99.90
10083;DHT22;5080;48.528;8.078;2022-10-16T07:40:25;16.80;99.90
10083;DHT22;5080;48.528;8.078;2022-10-16T07:42:52;16.80;99.90
10083;DHT22;5080;48.528;8.078;2022-10-16T07:45:19;16.90;99.90
10083;DHT22;5080;48.528;8.078;2022-10-16T07:47:46;16.90;99.90
10083;DHT22;5080;48.528;8.078;2022-10-16T07:50:13;16.90;99.90
10083;DHT22;5080;48.528;8.078;2022-10-16T07:52:40;17.00;99.90
10083;DHT22;5080;48.528;8.078;2022-10-16T07:55:08;17.00;99.90
10083;DHT22;5080;48.528;8.078;2022-10-16T07:57:36;17.00;99.90
10083;DHT22;5080;48.528;8.078;2022-10-16T08:00:03;17.10;99.90
10083;DHT22;5080;48.528;8.078;2022-10-16T08:02:31;17.10;99.90
10083;DHT22;5080;48.528;8.078;2022-10-16T08:04:58;17.20;99.90
10083;DHT22;5080;48.528;8.078;2022-10-16T08:07:25;17.20;99.90
10083;DHT22;5080;48.528;8.078;2022-10-16T08:09:52;17.40;99.90
10083;DHT22;5080;48.528;8.078;2022-10-16T08:12:19;17.50;99.90
10083;DHT22;5080;48.528;8.078;2022-10-16T08:14:47;17.50;99.90
10083;DHT22;5080;48.528;8.078;2022-10-16T08:17:14;17.60;99.90
10083;DHT22;5080;48.528;8.078;2022-10-16T08:19:44;17.60;99.90
10083;DHT22;5080;48.528;8.078;2022-10-16T08:22:11;17.70;99.90
10083;DHT22;5080;48.528;8.078;2022-10-16T08:24:38;17.80;99.90
10083;DHT22;5080;48.528;8.078;2022-10-16T08:27:05;17.90;99.90
10083;DHT22;5080;48.528;8.078;2022-10-16T08:29:32;18.10;99.90
10083;DHT22;5080;48.528;8.078;2022-10-16T08:32:00;18.20;99.90
10083;DHT22;5080;48.528;8.078;2022-10-16T08:34:27;18.30;99.90
10083;DHT22;5080;48.528;8.078;2022-10-16T08:36:54;18.50;99.90
10083;DHT22;5080;48.528;8.078;2022-10-16T08:39:21;18.60;99.90
10083;DHT22;5080;48.528;8.078;2022-10-16T08:42:11;18.70;99.90
10083;DHT22;5080;48.528;8.078;2022-10-16T08:47:49;18.80;99.90
10083;DHT22;5080;48.528;8.078;2022-10-16T08:50:23;18.90;99.90
10083;DHT22;5080;48.528;8.078;2022-10-16T08:52:51;18.90;99.90
10083;DHT22;5080;48.528;8.078;2022-10-16T08:55:31;19.00;99.90
10083;DHT22;5080;48.528;8.078;2022-10-16T08:58:00;19.10;99.90
10083;DHT22;5080;48.528;8.078;2022-10-16T09:00:27;19.30;99.90
10083;DHT22;5080;48.528;8.078;2022-10-16T09:03:03;19.40;99.90
10083;DHT22;5080;48.528;8.078;2022-10-16T09:08:33;19.70;99.90
10083;DHT22;5080;48.528;8.078;2022-10-16T09:11:08;19.90;99.90
10083;DHT22;5080;48.528;8.078;2022-10-16T09:13:48;20.10;99.90
10083;DHT22;5080;48.528;8.078;2022-10-16T09:16:19;20.50;99.90
10083;DHT22;5080;48.528;8.078;2022-10-16T09:18:54;20.80;99.90
10083;DHT22;5080;48.528;8.078;2022-10-16T09:21:25;21.00;99.90
10083;DHT22;5080;48.528;8.078;2022-10-16T09:23:54;21.30;99.90
10083;DHT22;5080;48.528;8.078;2022-10-16T09:26:23;21.70;99.90
10083;DHT22;5080;48.528;8.078;2022-10-16T09:28:52;22.00;99.90
10083;DHT22;5080;48.528;8.078;2022-10-16T09:31:20;22.40;99.90
10083;DHT22;5080;48.528;8.078;2022-10-16T09:33:53;22.70;99.90
10083;DHT22;5080;48.528;8.078;2022-10-16T09:36:21;22.60;99.90
10083;DHT22;5080;48.528;8.078;2022-10-16T09:38:49;22.40;99.90
10083;DHT22;5080;48.528;8.078;2022-10-16T09:41:18;22.30;99.90
10083;DHT22;5080;48.528;8.078;2022-10-16T09:43:53;22.40;99.90
10083;DHT22;5080;48.528;8.078;2022-10-16T09:46:29;22.40;99.90
10083;DHT22;5080;48.528;8.078;2022-10-16T09:48:59;22.40;99.90
10083;DHT22;5080;48.528;8.078;2022-10-16T09:51:28;22.50;99.90
10083;DHT22;5080;48.528;8.078;2022-10-16T09:53:57;22.50;99.90
10083;DHT22;5080;48.528;8.078;2022-10-16T09:56:26;22.40;99.90
10083;DHT22;5080;48.528;8.078;2022-10-16T09:58:54;22.40;99.90
10083;DHT22;5080;48.528;8.078;2022-10-16T10:01:24;22.40;99.90
10083;DHT22;5080;48.528;8.078;2022-10-16T10:03:57;22.40;99.90
10083;DHT22;5080;48.528;8.078;2022-10-16T10:06:28;22.30;99.90
10083;DHT22;5080;48.528;8.078;2022-10-16T10:09:04;22.30;99.90
10083;DHT22;5080;48.528;8.078;2022-10-16T10:11:43;22.30;99.90
10083;DHT22;5080;48.528;8.078;2022-10-16T10:14:17;22.30;99.90
10083;DHT22;5080;48.528;8.078;2022-10-16T10:16:44;22.30;99.90
10083;DHT22;5080;48.528;8.078;2022-10-16T10:19:16;22.30;99.90
10083;DHT22;5080;48.528;8.078;2022-10-16T10:21:43;22.30;99.90
10083;DHT22;5080;48.528;8.078;2022-10-16T10:24:15;22.30;99.90
10083;DHT22;5080;48.528;8.078;2022-10-16T10:26:53;22.30;99.90
10083;DHT22;5080;48.528;8.078;2022-10-16T10:29:30;22.40;99.90
10083;DHT22;5080;48.528;8.078;2022-10-16T10:32:09;22.50;99.90
10083;DHT22;5080;48.528;8.078;2022-10-16T10:34:52;22.60;99.90
10083;DHT22;5080;48.528;8.078;2022-10-16T10:37:42;22.70;99.90
10083;DHT22;5080;48.528;8.078;2022-10-16T10:40:19;22.90;99.90
10083;DHT22;5080;48.528;8.078;2022-10-16T10:42:52;23.20;99.90
10083;DHT22;5080;48.528;8.078;2022-10-16T10:45:26;23.30;99.90
10083;DHT22;5080;48.528;8.078;2022-10-16T10:48:14;23.40;99.90
10083;DHT22;5080;48.528;8.078;2022-10-16T10:50:49;23.30;99.90
10083;DHT22;5080;48.528;8.078;2022-10-16T10:53:25;23.30;99.90
10083;DHT22;5080;48.528;8.078;2022-10-16T10:56:04;23.30;99.90
10083;DHT22;5080;48.528;8.078;2022-10-16T10:59:06;23.20;99.90
10083;DHT22;5080;48.528;8.078;2022-10-16T11:01:42;23.20;99.90
10083;DHT22;5080;48.528;8.078;2022-10-16T11:04:33;23.20;99.90
10083;DHT22;5080;48.528;8.078;2022-10-16T11:07:05;23.20;99.90
10083;DHT22;5080;48.528;8.078;2022-10-16T11:09:36;23.20;99.90
10083;DHT22;5080;48.528;8.078;2022-10-16T11:12:09;23.30;99.90
10083;DHT22;5080;48.528;8.078;2022-10-16T11:14:42;23.60;99.90
10083;DHT22;5080;48.528;8.078;2022-10-16T11:17:12;23.60;99.90
10083;DHT22;5080;48.528;8.078;2022-10-16T11:19:44;23.60;99.90
10083;DHT22;5080;48.528;8.078;2022-10-16T11:22:19;23.60;99.90
10083;DHT22;5080;48.528;8.078;2022-10-16T11:24:51;23.60;99.90
10083;DHT22;5080;48.528;8.078;2022-10-16T11:27:25;23.70;99.90
10083;DHT22;5080;48.528;8.078;2022-10-16T11:29:57;23.80;99.90
10083;DHT22;5080;48.528;8.078;2022-10-16T11:32:32;23.90;99.90
10083;DHT22;5080;48.528;8.078;2022-10-16T11:35:06;23.90;99.90
10083;DHT22;5080;48.528;8.078;2022-10-16T11:37:42;23.90;99.90
10083;DHT22;5080;48.528;8.078;2022-10-16T11:40:19;23.90;99.90
10083;DHT22;5080;48.528;8.078;2022-10-16T11:42:51;23.70;99.90
10083;DHT22;5080;48.528;8.078;2022-10-16T11:45:26;23.70;99.90
10083;DHT22;5080;48.528;8.078;2022-10-16T11:48:01;23.70;99.90
10083;DHT22;5080;48.528;8.078;2022-10-16T11:50:32;23.70;99.90
10083;DHT22;5080;48.528;8.078;2022-10-16T11:53:11;23.80;99.90
10083;DHT22;5080;48.528;8.078;2022-10-16T11:55:41;23.90;99.90
10083;DHT22;5080;48.528;8.078;2022-10-16T11:58:16;24.00;99.90
10083;DHT22;5080;48.528;8.078;2022-10-16T12:00:54;24.00;99.90
10083;DHT22;5080;48.528;8.078;2022-10-16T12:03:27;24.10;99.90
10083;DHT22;5080;48.528;8.078;2022-10-16T12:08:45;24.10;99.90
10083;DHT22;5080;48.528;8.078;2022-10-16T12:11:24;24.00;99.90
10083;DHT22;5080;48.528;8.078;2022-10-16T12:14:18;24.10;99.90
10083;DHT22;5080;48.528;8.078;2022-10-16T12:16:53;24.10;99.90
10083;DHT22;5080;48.528;8.078;2022-10-16T12:19:21;24.30;99.90
10083;DHT22;5080;48.528;8.078;2022-10-16T12:21:49;24.40;99.90
10083;DHT22;5080;48.528;8.078;2022-10-16T12:24:33;24.50;99.90
10083;DHT22;5080;48.528;8.078;2022-10-16T12:27:00;24.40;99.90
10083;DHT22;5080;48.528;8.078;2022-10-16T12:29:36;24.40;99.90
10083;DHT22;5080;48.528;8.078;2022-10-16T12:32:18;24.40;99.90
10083;DHT22;5080;48.528;8.078;2022-10-16T12:34:47;24.40;99.90
10083;DHT22;5080;48.528;8.078;2022-10-16T12:37:20;24.40;99.90
10083;DHT22;5080;48.528;8.078;2022-10-16T12:39:49;24.40;99.90
10083;DHT22;5080;48.528;8.078;2022-10-16T12:42:23;24.40;99.90
10083;DHT22;5080;48.528;8.078;2022-10-16T12:44:50;24.30;99.90
10083;DHT22;5080;48.528;8.078;2022-10-16T12:47:22;24.30;99.90
10083;DHT22;5080;48.528;8.078;2022-10-16T12:49:51;24.20;99.90
10083;DHT22;5080;48.528;8.078;2022-10-16T12:52:26;24.20;99.90
10083;DHT22;5080;48.528;8.078;2022-10-16T12:54:57;24.20;99.90
10083;DHT22;5080;48.528;8.078;2022-10-16T12:57:41;24.20;99.90
10083;DHT22;5080;48.528;8.078;2022-10-16T13:00:18;24.20;99.90
10083;DHT22;5080;48.528;8.078;2022-10-16T13:02:59;24.20;99.90
10083;DHT22;5080;48.528;8.078;2022-10-16T13:05:42;24.30;99.90
10083;DHT22;5080;48.528;8.078;2022-10-16T13:08:26;24.20;99.90
10083;DHT22;5080;48.528;8.078;2022-10-16T13:11:04;24.20;99.90
10083;DHT22;5080;48.528;8.078;2022-10-16T13:13:47;24.20;99.90
10083;DHT22;5080;48.528;8.078;2022-10-16T13:16:23;24.30;99.90
10083;DHT22;5080;48.528;8.078;2022-10-16T13:18:59;24.30;99.90
10083;DHT22;5080;48.528;8.078;2022-10-16T13:21:36;24.30;99.90
10083;DHT22;5080;48.528;8.078;2022-10-16T13:24:15;24.30;99.90
10083;DHT22;5080;48.528;8.078;2022-10-16T13:26:54;24.40;99.90
10083;DHT22;5080;48.528;8.078;2022-10-16T13:29:23;24.40;99.90
10083;DHT22;5080;48.528;8.078;2022-10-16T13:31:50;24.50;99.90
10083;DHT22;5080;48.528;8.078;2022-10-16T13:34:19;24.50;99.90
10083;DHT22;5080;48.528;8.078;2022-10-16T13:36:48;24.50;99.90
10083;DHT22;5080;48.528;8.078;2022-10-16T13:39:22;24.60;99.90
10083;DHT22;5080;48.528;8.078;2022-10-16T13:42:01;24.50;99.90
10083;DHT22;5080;48.528;8.078;2022-10-16T13:44:34;24.60;99.90
10083;DHT22;5080;48.528;8.078;2022-10-16T13:47:02;24.60;99.90
10083;DHT22;5080;48.528;8.078;2022-10-16T13:49:29;24.70;99.90
10083;DHT22;5080;48.528;8.078;2022-10-16T13:51:57;24.60;99.90
10083;DHT22;5080;48.528;8.078;2022-10-16T13:54:25;24.60;99.90
10083;DHT22;5080;48.528;8.078;2022-10-16T13:56:52;24.60;99.90
10083;DHT22;5080;48.528;8.078;2022-10-16T13:59:25;24.60;99.90
10083;DHT22;5080;48.528;8.078;2022-10-16T14:01:54;24.70;99.90
10083;DHT22;5080;48.528;8.078;2022-10-16T14:04:22;24.80;99.90
10083;DHT22;5080;48.528;8.078;2022-10-16T14:06:50;24.80;99.90
10083;DHT22;5080;48.528;8.078;2022-10-16T14:09:23;24.70;99.90
10083;DHT22;5080;48.528;8.078;2022-10-16T14:11:54;24.60;99.90
10083;DHT22;5080;48.528;8.078;2022-10-16T14:14:23;24.50;99.90
10083;DHT22;5080;48.528;8.078;2022-10-16T14:16:51;24.50;99.90
10083;DHT22;5080;48.528;8.078;2022-10-16T14:19:22;24.60;99.90
10083;DHT22;5080;48.528;8.078;2022-10-16T14:21:49;24.60;99.90
10083;DHT22;5080;48.528;8.078;2022-10-16T14:24:25;24.70;99.90
10083;DHT22;5080;48.528;8.078;2022-10-16T14:26:53;24.90;99.90
10083;DHT22;5080;48.528;8.078;2022-10-16T14:29:24;25.00;99.90
10083;DHT22;5080;48.528;8.078;2022-10-16T14:31:55;25.00;99.90
10083;DHT22;5080;48.528;8.078;2022-10-16T14:34:24;25.00;99.90
10083;DHT22;5080;48.528;8.078;2022-10-16T14:36:53;25.00;99.90
10083;DHT22;5080;48.528;8.078;2022-10-16T14:39:21;25.20;99.90
10083;DHT22;5080;48.528;8.078;2022-10-16T14:41:50;25.20;99.90
10083;DHT22;5080;48.528;8.078;2022-10-16T14:44:18;25.30;99.90
10083;DHT22;5080;48.528;8.078;2022-10-16T14:46:47;25.30;99.90
10083;DHT22;5080;48.528;8.078;2022-10-16T14:49:17;25.20;99.90
10083;DHT22;5080;48.528;8.078;2022-10-16T14:51:45;25.10;99.90
10083;DHT22;5080;48.528;8.078;2022-10-16T14:54:13;25.00;99.90
10083;DHT22;5080;48.528;8.078;2022-10-16T14:56:47;24.90;99.90
10083;DHT22;5080;48.528;8.078;2022-10-16T14:59:16;24.80;99.90
10083;DHT22;5080;48.528;8.078;2022-10-16T15:01:44;24.80;99.90
10083;DHT22;5080;48.528;8.078;2022-10-16T15:04:13;24.60;99.90
10083;DHT22;5080;48.528;8.078;2022-10-16T15:06:41;24.60;99.90
10083;DHT22;5080;48.528;8.078;2022-10-16T15:09:07;24.40;99.90
10083;DHT22;5080;48.528;8.078;2022-10-16T15:11:34;24.30;99.90
10083;DHT22;5080;48.528;8.078;2022-10-16T15:14:01;24.20;99.90
10083;DHT22;5080;48.528;8.078;2022-10-16T15:16:29;24.10;99.90
10083;DHT22;5080;48.528;8.078;2022-10-16T15:18:56;23.90;99.90
10083;DHT22;5080;48.528;8.078;2022-10-16T15:21:27;23.90;99.90
10083;DHT22;5080;48.528;8.078;2022-10-16T15:23:54;23.80;99.90
10083;DHT22;5080;48.528;8.078;2022-10-16T15:26:22;23.70;99.90
10083;DHT22;5080;48.528;8.078;2022-10-16T15:28:49;23.50;99.90
10083;DHT22;5080;48.528;8.078;2022-10-16T15:31:15;23.40;99.90
10083;DHT22;5080;48.528;8.078;2022-10-16T15:33:42;23.30;99.90
10083;DHT22;5080;48.528;8.078;2022-10-16T15:36:09;23.20;99.90
10083;DHT22;5080;48.528;8.078;2022-10-16T15:38:37;23.00;99.90
10083;DHT22;5080;48.528;8.078;2022-10-16T15:41:04;22.90;99.90
10083;DHT22;5080;48.528;8.078;2022-10-16T15:43:31;22.80;99.90
10083;DHT22;5080;48.528;8.078;2022-10-16T15:46:00;22.70;99.90
10083;DHT22;5080;48.528;8.078;2022-10-16T15:48:28;22.60;99.90
10083;DHT22;5080;48.528;8.078;2022-10-16T15:50:55;22.50;99.90
10083;DHT22;5080;48.528;8.078;2022-10-16T15:53:21;22.40;99.90
10083;DHT22;5080;48.528;8.078;2022-10-16T15:55:50;22.20;99.90
10083;DHT22;5080;48.528;8.078;2022-10-16T15:58:17;22.30;99.90
10083;DHT22;5080;48.528;8.078;2022-10-16T16:00:44;22.20;99.90
10083;DHT22;5080;48.528;8.078;2022-10-16T16:03:10;22.10;99.90
10083;DHT22;5080;48.528;8.078;2022-10-16T16:05:38;22.00;99.90
10083;DHT22;5080;48.528;8.078;2022-10-16T16:08:05;21.90;99.90
10083;DHT22;5080;48.528;8.078;2022-10-16T16:10:32;21.70;99.90
10083;DHT22;5080;48.528;8.078;2022-10-16T16:13:00;21.70;99.90
10083;DHT22;5080;48.528;8.078;2022-10-16T16:15:27;21.50;99.90